sensor_id;sensor_type;location;lat;lon;timestamp;pressure;altitude;pressure_sealevel;temperature;humidity
47706;BME280;33471;52.104;1.318;2023-05-02T00:00:27;101918.65;;;14.05;51.19
47706;BME280;33471;52.104;1.318;2023-05-02T00:02:55;101920.28;;;13.19;51.97
47706;BME280;33471;52.104;1.318;2023-05-02T00:05:22;101917.97;;;13.54;51.54
47706;BME280;33471;52.104;1.318;2023-05-02T00:07:50;101915.96;;;12.67;53.90
47706;BME280;33471;52.104;1.318;2023-05-02T00:10:18;101920.08;;;12.24;54.25
47706;BME280;33471;52.104;1.318;2023-05-02T00:12:45;101918.60;;;12.98;52.51
47706;BME280;33471;52.104;1.318;2023-05-02T00:15:12;101932.00;;;11.38;56.40
47706;BME280;33471;52.104;1.318;2023-05-02T00:17:39;101931.55;;;12.03;54.62
47706;BME280;33471;52.104;1.318;2023-05-02T00:20:08;101934.57;;;11.54;56.92
47706;BME280;33471;52.104;1.318;2023-05-02T00:22:36;101930.60;;;12.20;55.00
47706;BME280;33471;52.104;1.318;2023-05-02T00:25:03;101929.67;;;12.23;53.69
47706;BME280;33471;52.104;1.318;2023-05-02T00:27:30;101932.89;;;11.93;55.18
47706;BME280;33471;52.104;1.318;2023-05-02T00:29:58;101929.38;;;12.31;53.68
47706;BME280;33471;52.104;1.318;2023-05-02T00:32:26;101930.05;;;12.58;54.17
47706;BME280;33471;52.104;1.318;2023-05-02T00:34:54;101930.36;;;12.37;54.85
47706;BME280;33471;52.104;1.318;2023-05-02T00:37:25;101928.10;;;12.45;54.63
47706;BME280;33471;52.104;1.318;2023-05-02T00:39:52;101932.60;;;13.01;54.17
47706;BME280;33471;52.104;1.318;2023-05-02T00:42:20;101931.34;;;12.52;54.03
47706;BME280;33471;52.104;1.318;2023-05-02T00:44:47;101930.96;;;12.40;54.75
47706;BME280;33471;52.104;1.318;2023-05-02T00:47:15;101924.43;;;13.29;52.89
47706;BME280;33471;52.104;1.318;2023-05-02T00:49:42;101933.59;;;11.78;55.25
47706;BME280;33471;52.104;1.318;2023-05-02T00:52:10;101942.31;;;11.41;56.51
47706;BME280;33471;52.104;1.318;2023-05-02T00:54:37;101957.60;;;11.47;58.28
47706;BME280;33471;52.104;1.318;2023-05-02T00:57:05;101971.06;;;11.61;57.65
47706;BME280;33471;52.104;1.318;2023-05-02T00:59:32;101967.29;;;11.51;57.99
47706;BME280;33471;52.104;1.318;2023-05-02T01:02:12;101962.76;;;11.74;57.51
47706;BME280;33471;52.104;1.318;2023-05-02T01:04:53;101958.46;;;12.13;56.29
47706;BME280;33471;52.104;1.318;2023-05-02T01:07:37;101964.69;;;11.44;58.16
47706;BME280;33471;52.104;1.318;2023-05-02T01:10:20;101966.83;;;12.09;57.16
47706;BME280;33471;52.104;1.318;2023-05-02T01:12:56;101966.47;;;12.39;56.45
47706;BME280;33471;52.104;1.318;2023-05-02T01:15:25;101967.02;;;12.15;55.56
47706;BME280;33471;52.104;1.318;2023-05-02T01:17:59;101967.78;;;12.71;55.59
47706;BME280;33471;52.104;1.318;2023-05-02T01:20:28;101964.54;;;12.20;55.90
47706;BME280;33471;52.104;1.318;2023-05-02T01:23:02;101962.01;;;12.25;55.42
47706;BME280;33471;52.104;1.318;2023-05-02T01:25:38;101963.07;;;12.55;54.64
47706;BME280;33471;52.104;1.318;2023-05-02T01:28:17;101963.63;;;12.20;55.37
47706;BME280;33471;52.104;1.318;2023-05-02T01:30:48;101964.55;;;12.51;55.29
47706;BME280;33471;52.104;1.318;2023-05-02T01:33:18;101968.64;;;12.35;55.73
47706;BME280;33471;52.104;1.318;2023-05-02T01:35:49;101975.14;;;11.65;56.60
47706;BME280;33471;52.104;1.318;2023-05-02T01:38:18;101975.37;;;12.22;54.98
47706;BME280;33471;52.104;1.318;2023-05-02T01:40:47;101981.58;;;11.98;56.28
47706;BME280;33471;52.104;1.318;2023-05-02T01:43:17;101984.45;;;11.60;57.15
47706;BME280;33471;52.104;1.318;2023-05-02T01:45:48;101986.37;;;12.17;56.00
47706;BME280;33471;52.104;1.318;2023-05-02T01:48:17;101988.20;;;11.64;57.15
47706;BME280;33471;52.104;1.318;2023-05-02T01:50:45;101988.13;;;11.90;56.40
47706;BME280;33471;52.104;1.318;2023-05-02T01:53:13;101988.59;;;12.16;55.80
47706;BME280;33471;52.104;1.318;2023-05-02T01:55:43;101993.36;;;11.23;58.14
47706;BME280;33471;52.104;1.318;2023-05-02T01:58:11;102003.21;;;10.80;58.79
47706;BME280;33471;52.104;1.318;2023-05-02T02:00:40;102010.45;;;11.25;58.33
47706;BME280;33471;52.104;1.318;2023-05-02T02:03:08;102016.86;;;10.92;59.64
47706;BME280;33471;52.104;1.318;2023-05-02T02:05:36;102017.36;;;10.97;59.75
47706;BME280;33471;52.104;1.318;2023-05-02T02:08:05;102014.67;;;11.21;58.04
47706;BME280;33471;52.104;1.318;2023-05-02T02:10:40;102018.47;;;11.21;58.40
47706;BME280;33471;52.104;1.318;2023-05-02T02:13:16;102026.60;;;10.81;59.15
47706;BME280;33471;52.104;1.318;2023-05-02T02:15:46;102025.30;;;11.32;57.49
47706;BME280;33471;52.104;1.318;2023-05-02T02:18:18;102025.92;;;11.28;57.08
47706;BME280;33471;52.104;1.318;2023-05-02T02:20:47;102029.25;;;11.35;56.68
47706;BME280;33471;52.104;1.318;2023-05-02T02:23:18;102035.03;;;11.04;57.96
47706;BME280;33471;52.104;1.318;2023-05-02T02:25:47;102032.01;;;11.22;57.38
47706;BME280;33471;52.104;1.318;2023-05-02T02:28:16;102036.50;;;11.16;56.80
47706;BME280;33471;52.104;1.318;2023-05-02T02:30:43;102038.52;;;11.49;56.53
47706;BME280;33471;52.104;1.318;2023-05-02T02:33:10;102038.91;;;11.23;56.47
47706;BME280;33471;52.104;1.318;2023-05-02T02:35:41;102044.55;;;11.13;57.53
47706;BME280;33471;52.104;1.318;2023-05-02T02:38:17;102041.26;;;11.16;55.43
47706;BME280;33471;52.104;1.318;2023-05-02T02:40:52;102042.78;;;11.44;55.69
47706;BME280;33471;52.104;1.318;2023-05-02T02:43:26;102046.23;;;11.77;54.52
47706;BME280;33471;52.104;1.318;2023-05-02T02:46:13;102049.09;;;11.47;54.58
47706;BME280;33471;52.104;1.318;2023-05-02T02:48:49;102050.30;;;11.86;54.17
47706;BME280;33471;52.104;1.318;2023-05-02T02:51:27;102049.84;;;11.45;54.21
47706;BME280;33471;52.104;1.318;2023-05-02T02:54:00;102051.61;;;11.73;52.75
47706;BME280;33471;52.104;1.318;2023-05-02T02:56:36;102051.90;;;11.84;52.85
47706;BME280;33471;52.104;1.318;2023-05-02T02:59:08;102051.90;;;12.08;53.31
47706;BME280;33471;52.104;1.318;2023-05-02T03:01:41;102052.71;;;12.14;53.03
47706;BME280;33471;52.104;1.318;2023-05-02T03:04:10;102054.48;;;12.44;52.28
47706;BME280;33471;52.104;1.318;2023-05-02T03:06:39;102054.27;;;12.06;52.86
47706;BME280;33471;52.104;1.318;2023-05-02T03:09:14;102052.33;;;12.27;52.42
47706;BME280;33471;52.104;1.318;2023-05-02T03:11:41;102051.70;;;11.98;53.01
47706;BME280;33471;52.104;1.318;2023-05-02T03:14:09;102051.59;;;12.29;52.16
47706;BME280;33471;52.104;1.318;2023-05-02T03:16:37;102053.79;;;11.91;53.87
47706;BME280;33471;52.104;1.318;2023-05-02T03:19:05;102059.48;;;11.65;52.89
47706;BME280;33471;52.104;1.318;2023-05-02T03:21:33;102068.99;;;11.33;54.92
47706;BME280;33471;52.104;1.318;2023-05-02T03:24:02;102068.51;;;11.54;53.20
47706;BME280;33471;52.104;1.318;2023-05-02T03:26:29;102070.99;;;11.38;54.27
47706;BME280;33471;52.104;1.318;2023-05-02T03:28:57;102076.87;;;11.78;53.79
47706;BME280;33471;52.104;1.318;2023-05-02T03:31:24;102082.11;;;11.10;54.56
47706;BME280;33471;52.104;1.318;2023-05-02T03:33:51;102079.24;;;12.03;52.69
47706;BME280;33471;52.104;1.318;2023-05-02T03:36:18;102080.81;;;12.26;52.25
47706;BME280;33471;52.104;1.318;2023-05-02T03:38:45;102081.29;;;12.17;51.67
47706;BME280;33471;52.104;1.318;2023-05-02T03:41:12;102083.21;;;11.85;51.26
47706;BME280;33471;52.104;1.318;2023-05-02T03:43:39;102082.65;;;11.87;51.70
47706;BME280;33471;52.104;1.318;2023-05-02T03:46:07;102083.93;;;11.81;52.53
47706;BME280;33471;52.104;1.318;2023-05-02T03:48:35;102086.69;;;11.96;52.15
47706;BME280;33471;52.104;1.318;2023-05-02T03:51:03;102087.19;;;12.09;51.47
47706;BME280;33471;52.104;1.318;2023-05-02T03:53:31;102093.43;;;11.22;53.13
47706;BME280;33471;52.104;1.318;2023-05-02T03:55:58;102095.45;;;11.28;51.55
47706;BME280;33471;52.104;1.318;2023-05-02T03:58:26;102095.72;;;11.34;52.04
47706;BME280;33471;52.104;1.318;2023-05-02T04:00:53;102094.81;;;11.46;51.97
47706;BME280;33471;52.104;1.318;2023-05-02T04:03:21;102096.26;;;12.09;50.93
47706;BME280;33471;52.104;1.318;2023-05-02T04:05:48;102093.15;;;11.80;51.31
47706;BME280;33471;52.104;1.318;2023-05-02T04:08:15;102093.37;;;11.67;51.07
47706;BME280;33471;52.104;1.318;2023-05-02T04:10:42;102098.30;;;11.57;51.85
47706;BME280;33471;52.104;1.318;2023-05-02T04:13:09;102103.13;;;11.83;51.20
47706;BME280;33471;52.104;1.318;2023-05-02T04:15:36;102116.93;;;11.45;52.20
47706;BME280;33471;52.104;1.318;2023-05-02T04:18:03;102124.82;;;11.49;51.99
47706;BME280;33471;52.104;1.318;2023-05-02T04:20:31;102127.31;;;11.44;51.59
47706;BME280;33471;52.104;1.318;2023-05-02T04:22:59;102120.39;;;11.88;51.20
47706;BME280;33471;52.104;1.318;2023-05-02T04:25:27;102123.06;;;12.46;50.46
47706;BME280;33471;52.104;1.318;2023-05-02T04:27:55;102127.23;;;12.19;50.49
47706;BME280;33471;52.104;1.318;2023-05-02T04:30:22;102133.44;;;11.74;50.45
47706;BME280;33471;52.104;1.318;2023-05-02T04:32:49;102135.74;;;12.17;50.54
47706;BME280;33471;52.104;1.318;2023-05-02T04:35:16;102143.38;;;12.14;50.31
47706;BME280;33471;52.104;1.318;2023-05-02T04:37:44;102150.87;;;12.32;49.84
47706;BME280;33471;52.104;1.318;2023-05-02T04:40:12;102154.80;;;12.24;50.33
47706;BME280;33471;52.104;1.318;2023-05-02T04:42:39;102159.34;;;12.17;49.86
47706;BME280;33471;52.104;1.318;2023-05-02T04:45:08;102161.95;;;12.22;49.73
47706;BME280;33471;52.104;1.318;2023-05-02T04:47:35;102160.47;;;12.22;50.09
47706;BME280;33471;52.104;1.318;2023-05-02T04:50:03;102164.07;;;12.23;49.58
47706;BME280;33471;52.104;1.318;2023-05-02T04:52:29;102168.86;;;12.45;49.63
47706;BME280;33471;52.104;1.318;2023-05-02T04:54:56;102173.09;;;12.10;49.90
47706;BME280;33471;52.104;1.318;2023-05-02T04:57:23;102175.37;;;11.77;49.55
47706;BME280;33471;52.104;1.318;2023-05-02T04:59:50;102174.59;;;11.81;50.12
47706;BME280;33471;52.104;1.318;2023-05-02T05:02:17;102175.29;;;11.91;48.91
47706;BME280;33471;52.104;1.318;2023-05-02T05:04:45;102180.26;;;12.11;49.61
47706;BME280;33471;52.104;1.318;2023-05-02T05:07:11;102181.62;;;12.21;49.45
47706;BME280;33471;52.104;1.318;2023-05-02T05:09:39;102185.59;;;12.39;48.72
47706;BME280;33471;52.104;1.318;2023-05-02T05:12:06;102188.44;;;12.61;47.83
47706;BME280;33471;52.104;1.318;2023-05-02T05:14:33;102188.81;;;12.69;48.12
47706;BME280;33471;52.104;1.318;2023-05-02T05:17:00;102196.92;;;12.66;47.84
47706;BME280;33471;52.104;1.318;2023-05-02T05:19:27;102206.04;;;12.86;48.33
47706;BME280;33471;52.104;1.318;2023-05-02T05:21:54;102206.40;;;12.98;47.40
47706;BME280;33471;52.104;1.318;2023-05-02T05:24:21;102210.08;;;12.71;47.96
47706;BME280;33471;52.104;1.318;2023-05-02T05:26:48;102214.33;;;12.78;47.54
47706;BME280;33471;52.104;1.318;2023-05-02T05:29:15;102218.03;;;12.52;48.06
47706;BME280;33471;52.104;1.318;2023-05-02T05:31:41;102224.33;;;13.33;47.37
47706;BME280;33471;52.104;1.318;2023-05-02T05:34:08;102226.34;;;12.77;47.84
47706;BME280;33471;52.104;1.318;2023-05-02T05:36:35;102232.23;;;12.82;47.29
47706;BME280;33471;52.104;1.318;2023-05-02T05:39:02;102234.91;;;12.67;47.83
47706;BME280;33471;52.104;1.318;2023-05-02T05:41:29;102233.83;;;13.09;47.44
47706;BME280;33471;52.104;1.318;2023-05-02T05:43:56;102236.47;;;12.55;47.83
47706;BME280;33471;52.104;1.318;2023-05-02T05:46:23;102242.87;;;12.88;46.01
47706;BME280;33471;52.104;1.318;2023-05-02T05:48:51;102246.18;;;13.03;46.70
47706;BME280;33471;52.104;1.318;2023-05-02T05:51:17;102253.53;;;13.31;46.46
47706;BME280;33471;52.104;1.318;2023-05-02T05:53:45;102258.27;;;13.51;46.31
47706;BME280;33471;52.104;1.318;2023-05-02T05:56:12;102263.90;;;13.20;46.43
47706;BME280;33471;52.104;1.318;2023-05-02T05:58:39;102264.69;;;12.99;46.76
47706;BME280;33471;52.104;1.318;2023-05-02T06:01:07;102268.35;;;12.88;46.94
47706;BME280;33471;52.104;1.318;2023-05-02T06:03:35;102267.02;;;13.56;46.42
47706;BME280;33471;52.104;1.318;2023-05-02T06:06:03;102264.91;;;13.75;45.88
47706;BME280;33471;52.104;1.318;2023-05-02T06:08:30;102268.38;;;13.04;45.23
47706;BME280;33471;52.104;1.318;2023-05-02T06:10:57;102272.54;;;13.27;45.46
47706;BME280;33471;52.104;1.318;2023-05-02T06:13:25;102278.54;;;13.00;45.71
47706;BME280;33471;52.104;1.318;2023-05-02T06:15:52;102281.17;;;12.48;46.32
47706;BME280;33471;52.104;1.318;2023-05-02T06:18:19;102278.70;;;12.77;46.26
47706;BME280;33471;52.104;1.318;2023-05-02T06:20:47;102280.57;;;12.80;46.50
47706;BME280;33471;52.104;1.318;2023-05-02T06:23:15;102282.79;;;12.29;46.01
47706;BME280;33471;52.104;1.318;2023-05-02T06:25:42;102280.35;;;12.45;46.50
47706;BME280;33471;52.104;1.318;2023-05-02T06:28:09;102286.59;;;12.20;47.41
47706;BME280;33471;52.104;1.318;2023-05-02T06:30:36;102288.61;;;12.96;46.27
47706;BME280;33471;52.104;1.318;2023-05-02T06:33:04;102290.28;;;12.49;46.99
47706;BME280;33471;52.104;1.318;2023-05-02T06:35:31;102289.59;;;12.67;46.98
47706;BME280;33471;52.104;1.318;2023-05-02T06:37:58;102294.91;;;12.68;46.80
47706;BME280;33471;52.104;1.318;2023-05-02T06:40:25;102303.70;;;11.62;47.75
47706;BME280;33471;52.104;1.318;2023-05-02T06:42:52;102308.73;;;12.08;47.95
47706;BME280;33471;52.104;1.318;2023-05-02T06:45:19;102311.46;;;11.48;47.99
47706;BME280;33471;52.104;1.318;2023-05-02T06:47:46;102311.74;;;10.77;48.70
47706;BME280;33471;52.104;1.318;2023-05-02T06:50:13;102313.99;;;10.80;49.29
47706;BME280;33471;52.104;1.318;2023-05-02T06:52:41;102316.55;;;10.16;48.52
47706;BME280;33471;52.104;1.318;2023-05-02T06:55:08;102315.63;;;10.76;47.61
47706;BME280;33471;52.104;1.318;2023-05-02T06:57:35;102317.59;;;11.13;47.25
47706;BME280;33471;52.104;1.318;2023-05-02T07:00:03;102319.99;;;11.43;46.73
47706;BME280;33471;52.104;1.318;2023-05-02T07:02:30;102326.36;;;12.25;44.78
47706;BME280;33471;52.104;1.318;2023-05-02T07:04:57;102325.05;;;12.35;44.86
47706;BME280;33471;52.104;1.318;2023-05-02T07:07:24;102324.58;;;12.05;43.63
47706;BME280;33471;52.104;1.318;2023-05-02T07:09:51;102320.29;;;12.69;43.61
47706;BME280;33471;52.104;1.318;2023-05-02T07:12:17;102328.04;;;11.95;43.51
47706;BME280;33471;52.104;1.318;2023-05-02T07:14:44;102322.09;;;11.96;44.16
47706;BME280;33471;52.104;1.318;2023-05-02T07:17:12;102321.63;;;12.05;43.46
47706;BME280;33471;52.104;1.318;2023-05-02T07:19:39;102321.57;;;11.88;44.23
47706;BME280;33471;52.104;1.318;2023-05-02T07:22:06;102321.62;;;12.52;42.97
47706;BME280;33471;52.104;1.318;2023-05-02T07:24:32;102323.88;;;12.17;43.70
47706;BME280;33471;52.104;1.318;2023-05-02T07:26:59;102320.49;;;12.75;42.84
47706;BME280;33471;52.104;1.318;2023-05-02T07:29:26;102315.98;;;12.98;42.05
47706;BME280;33471;52.104;1.318;2023-05-02T07:31:53;102311.01;;;13.29;41.75
47706;BME280;33471;52.104;1.318;2023-05-02T07:34:21;102311.81;;;13.06;40.49
47706;BME280;33471;52.104;1.318;2023-05-02T07:36:48;102316.61;;;13.54;39.97
47706;BME280;33471;52.104;1.318;2023-05-02T07:39:15;102323.47;;;12.36;40.46
47706;BME280;33471;52.104;1.318;2023-05-02T07:41:42;102319.36;;;13.68;40.03
47706;BME280;33471;52.104;1.318;2023-05-02T07:44:10;102321.83;;;14.31;39.90
47706;BME280;33471;52.104;1.318;2023-05-02T07:46:37;102329.60;;;12.81;40.66
47706;BME280;33471;52.104;1.318;2023-05-02T07:49:03;102318.56;;;13.13;39.63
47706;BME280;33471;52.104;1.318;2023-05-02T07:51:30;102331.45;;;12.77;40.62
47706;BME280;33471;52.104;1.318;2023-05-02T07:53:57;102334.71;;;12.92;41.73
47706;BME280;33471;52.104;1.318;2023-05-02T07:56:25;102338.85;;;12.49;42.40
47706;BME280;33471;52.104;1.318;2023-05-02T07:58:51;102331.43;;;13.09;41.02
47706;BME280;33471;52.104;1.318;2023-05-02T08:01:19;102331.15;;;13.14;40.95
47706;BME280;33471;52.104;1.318;2023-05-02T08:03:46;102346.68;;;13.00;39.96
47706;BME280;33471;52.104;1.318;2023-05-02T08:06:12;102346.33;;;13.33;38.60
47706;BME280;33471;52.104;1.318;2023-05-02T08:08:39;102352.94;;;12.76;39.89
47706;BME280;33471;52.104;1.318;2023-05-02T08:11:07;102352.21;;;13.79;39.43
47706;BME280;33471;52.104;1.318;2023-05-02T08:13:34;102353.18;;;13.67;38.97
47706;BME280;33471;52.104;1.318;2023-05-02T08:16:01;102352.98;;;13.45;39.40
47706;BME280;33471;52.104;1.318;2023-05-02T08:18:28;102363.78;;;12.37;41.66
47706;BME280;33471;52.104;1.318;2023-05-02T08:20:56;102359.66;;;13.17;40.91
47706;BME280;33471;52.104;1.318;2023-05-02T08:23:23;102363.67;;;13.66;38.91
47706;BME280;33471;52.104;1.318;2023-05-02T08:25:50;102365.86;;;13.98;38.16
47706;BME280;33471;52.104;1.318;2023-05-02T08:28:17;102368.53;;;14.20;39.02
47706;BME280;33471;52.104;1.318;2023-05-02T08:30:44;102369.52;;;14.45;39.87
47706;BME280;33471;52.104;1.318;2023-05-02T08:33:11;102364.99;;;14.14;36.77
47706;BME280;33471;52.104;1.318;2023-05-02T08:35:38;102362.28;;;14.55;37.47
47706;BME280;33471;52.104;1.318;2023-05-02T08:38:05;102365.74;;;13.56;38.62
47706;BME280;33471;52.104;1.318;2023-05-02T08:40:37;102368.56;;;14.40;37.45
47706;BME280;33471;52.104;1.318;2023-05-02T08:43:04;102367.69;;;14.47;36.40
47706;BME280;33471;52.104;1.318;2023-05-02T08:45:34;102370.94;;;14.02;38.96
47706;BME280;33471;52.104;1.318;2023-05-02T08:48:03;102366.23;;;14.72;36.80
47706;BME280;33471;52.104;1.318;2023-05-02T08:50:33;102368.86;;;13.68;37.90
47706;BME280;33471;52.104;1.318;2023-05-02T08:53:04;102368.04;;;14.05;37.49
47706;BME280;33471;52.104;1.318;2023-05-02T08:55:32;102373.46;;;13.99;38.97
47706;BME280;33471;52.104;1.318;2023-05-02T08:58:02;102373.23;;;14.67;39.49
47706;BME280;33471;52.104;1.318;2023-05-02T09:00:29;102379.73;;;13.65;40.80
47706;BME280;33471;52.104;1.318;2023-05-02T09:03:05;102381.82;;;14.29;39.77
47706;BME280;33471;52.104;1.318;2023-05-02T09:05:37;102383.67;;;14.60;38.84
47706;BME280;33471;52.104;1.318;2023-05-02T09:08:06;102389.34;;;13.66;38.76
47706;BME280;33471;52.104;1.318;2023-05-02T09:10:33;102393.06;;;13.80;38.52
47706;BME280;33471;52.104;1.318;2023-05-02T09:13:27;102390.79;;;13.79;38.88
47706;BME280;33471;52.104;1.318;2023-05-02T09:15:57;102386.96;;;14.14;38.51
47706;BME280;33471;52.104;1.318;2023-05-02T09:18:27;102388.13;;;14.73;37.35
47706;BME280;33471;52.104;1.318;2023-05-02T09:20:56;102395.06;;;14.69;37.57
47706;BME280;33471;52.104;1.318;2023-05-02T09:23:32;102393.39;;;14.93;37.32
47706;BME280;33471;52.104;1.318;2023-05-02T09:25:59;102403.22;;;15.16;37.09
47706;BME280;33471;52.104;1.318;2023-05-02T09:28:43;102407.70;;;14.67;37.39
47706;BME280;33471;52.104;1.318;2023-05-02T09:31:12;102407.84;;;14.75;37.17
47706;BME280;33471;52.104;1.318;2023-05-02T09:33:40;102409.48;;;15.26;37.12
47706;BME280;33471;52.104;1.318;2023-05-02T09:36:10;102405.77;;;16.36;37.68
47706;BME280;33471;52.104;1.318;2023-05-02T09:38:37;102418.19;;;15.46;36.62
47706;BME280;33471;52.104;1.318;2023-05-02T09:41:05;102423.41;;;15.60;36.46
47706;BME280;33471;52.104;1.318;2023-05-02T09:43:32;102426.18;;;14.98;36.13
47706;BME280;33471;52.104;1.318;2023-05-02T09:46:03;102421.01;;;16.27;35.72
47706;BME280;33471;52.104;1.318;2023-05-02T09:48:31;102420.65;;;15.74;35.98
47706;BME280;33471;52.104;1.318;2023-05-02T09:50:59;102419.98;;;15.81;35.81
47706;BME280;33471;52.104;1.318;2023-05-02T09:53:27;102422.80;;;15.21;36.63
47706;BME280;33471;52.104;1.318;2023-05-02T09:56:02;102431.60;;;15.48;36.64
47706;BME280;33471;52.104;1.318;2023-05-02T09:58:30;102438.40;;;14.48;38.04
47706;BME280;33471;52.104;1.318;2023-05-02T10:00:57;102440.41;;;14.72;36.72
47706;BME280;33471;52.104;1.318;2023-05-02T10:03:25;102439.08;;;14.66;36.61
47706;BME280;33471;52.104;1.318;2023-05-02T10:05:54;102438.93;;;15.23;38.04
47706;BME280;33471;52.104;1.318;2023-05-02T10:08:24;102433.20;;;15.96;35.34
47706;BME280;33471;52.104;1.318;2023-05-02T10:10:55;102443.11;;;15.58;36.95
47706;BME280;33471;52.104;1.318;2023-05-02T10:13:24;102444.74;;;17.04;36.81
47706;BME280;33471;52.104;1.318;2023-05-02T10:15:57;102442.22;;;16.95;36.41
47706;BME280;33471;52.104;1.318;2023-05-02T10:18:28;102443.99;;;15.62;35.87
47706;BME280;33471;52.104;1.318;2023-05-02T10:20:57;102453.75;;;15.08;36.39
47706;BME280;33471;52.104;1.318;2023-05-02T10:23:26;102457.98;;;15.11;35.98
47706;BME280;33471;52.104;1.318;2023-05-02T10:25:54;102454.04;;;15.96;35.36
47706;BME280;33471;52.104;1.318;2023-05-02T10:28:21;102449.91;;;16.44;36.06
47706;BME280;33471;52.104;1.318;2023-05-02T10:30:49;102453.19;;;15.29;36.57
47706;BME280;33471;52.104;1.318;2023-05-02T10:33:17;102450.68;;;14.67;36.14
47706;BME280;33471;52.104;1.318;2023-05-02T10:35:46;102447.18;;;15.94;35.98
47706;BME280;33471;52.104;1.318;2023-05-02T10:38:15;102447.84;;;16.46;35.01
47706;BME280;33471;52.104;1.318;2023-05-02T10:40:48;102445.83;;;17.06;34.36
47706;BME280;33471;52.104;1.318;2023-05-02T10:43:16;102450.00;;;17.27;32.87
47706;BME280;33471;52.104;1.318;2023-05-02T10:45:43;102458.05;;;16.74;32.04
47706;BME280;33471;52.104;1.318;2023-05-02T10:48:15;102457.63;;;15.52;32.93
47706;BME280;33471;52.104;1.318;2023-05-02T10:50:45;102449.33;;;16.89;33.50
47706;BME280;33471;52.104;1.318;2023-05-02T10:53:30;102452.04;;;16.89;33.56
47706;BME280;33471;52.104;1.318;2023-05-02T10:56:16;102448.42;;;16.61;34.13
47706;BME280;33471;52.104;1.318;2023-05-02T10:58:44;102451.78;;;18.08;32.64
47706;BME280;33471;52.104;1.318;2023-05-02T11:01:43;102450.31;;;18.13;30.63
47706;BME280;33471;52.104;1.318;2023-05-02T11:04:11;102449.55;;;17.19;31.66
47706;BME280;33471;52.104;1.318;2023-05-02T11:07:18;102453.03;;;17.75;31.74
47706;BME280;33471;52.104;1.318;2023-05-02T11:09:45;102452.04;;;17.21;31.87
47706;BME280;33471;52.104;1.318;2023-05-02T11:12:42;102447.25;;;16.73;32.57
47706;BME280;33471;52.104;1.318;2023-05-02T11:15:10;102439.04;;;18.08;30.01
47706;BME280;33471;52.104;1.318;2023-05-02T11:17:58;102447.06;;;16.29;33.01
47706;BME280;33471;52.104;1.318;2023-05-02T11:20:26;102447.07;;;18.68;30.69
47706;BME280;33471;52.104;1.318;2023-05-02T11:22:57;102449.22;;;18.02;30.89
47706;BME280;33471;52.104;1.318;2023-05-02T11:25:29;102457.65;;;17.16;30.53
47706;BME280;33471;52.104;1.318;2023-05-02T11:27:57;102456.94;;;18.01;29.57
47706;BME280;33471;52.104;1.318;2023-05-02T11:30:42;102460.40;;;17.68;30.65
47706;BME280;33471;52.104;1.318;2023-05-02T11:33:12;102460.76;;;18.11;30.32
47706;BME280;33471;52.104;1.318;2023-05-02T11:35:41;102462.72;;;19.58;28.93
47706;BME280;33471;52.104;1.318;2023-05-02T11:38:11;102462.36;;;17.92;29.39
47706;BME280;33471;52.104;1.318;2023-05-02T11:40:38;102470.79;;;18.17;29.61
47706;BME280;33471;52.104;1.318;2023-05-02T11:43:13;102471.49;;;18.26;28.80
47706;BME280;33471;52.104;1.318;2023-05-02T11:45:41;102474.23;;;18.91;29.54
47706;BME280;33471;52.104;1.318;2023-05-02T11:48:11;102472.28;;;19.42;31.08
47706;BME280;33471;52.104;1.318;2023-05-02T11:50:42;102473.71;;;19.52;28.11
47706;BME280;33471;52.104;1.318;2023-05-02T11:53:10;102473.79;;;20.04;27.24
47706;BME280;33471;52.104;1.318;2023-05-02T11:55:44;102473.97;;;18.92;28.12
47706;BME280;33471;52.104;1.318;2023-05-02T11:58:14;102477.98;;;18.62;28.77
47706;BME280;33471;52.104;1.318;2023-05-02T12:00:41;102475.63;;;19.32;29.54
47706;BME280;33471;52.104;1.318;2023-05-02T12:03:20;102476.28;;;19.51;29.60
47706;BME280;33471;52.104;1.318;2023-05-02T12:05:47;102479.45;;;19.34;30.73
47706;BME280;33471;52.104;1.318;2023-05-02T12:08:24;102482.75;;;19.06;29.20
47706;BME280;33471;52.104;1.318;2023-05-02T12:10:53;102482.25;;;18.30;28.46
47706;BME280;33471;52.104;1.318;2023-05-02T12:13:22;102481.25;;;18.52;29.65
47706;BME280;33471;52.104;1.318;2023-05-02T12:15:50;102480.09;;;20.35;30.51
47706;BME280;33471;52.104;1.318;2023-05-02T12:18:18;102486.45;;;19.76;28.31
47706;BME280;33471;52.104;1.318;2023-05-02T12:20:45;102492.44;;;19.67;28.29
47706;BME280;33471;52.104;1.318;2023-05-02T12:23:13;102498.65;;;17.79;29.25
47706;BME280;33471;52.104;1.318;2023-05-02T12:25:42;102495.04;;;17.41;30.52
47706;BME280;33471;52.104;1.318;2023-05-02T12:28:09;102489.38;;;18.38;30.03
47706;BME280;33471;52.104;1.318;2023-05-02T12:30:37;102485.79;;;18.25;31.36
47706;BME280;33471;52.104;1.318;2023-05-02T12:33:05;102488.09;;;18.44;30.14
47706;BME280;33471;52.104;1.318;2023-05-02T12:35:34;102495.48;;;17.47;29.57
47706;BME280;33471;52.104;1.318;2023-05-02T12:38:10;102495.58;;;18.54;29.17
47706;BME280;33471;52.104;1.318;2023-05-02T12:40:44;102504.79;;;17.41;30.21
47706;BME280;33471;52.104;1.318;2023-05-02T12:43:12;102511.00;;;17.15;30.48
47706;BME280;33471;52.104;1.318;2023-05-02T12:45:39;102506.57;;;18.35;30.91
47706;BME280;33471;52.104;1.318;2023-05-02T12:48:39;102504.73;;;19.18;29.88
47706;BME280;33471;52.104;1.318;2023-05-02T12:51:20;102508.94;;;18.69;30.01
47706;BME280;33471;52.104;1.318;2023-05-02T12:53:47;102506.87;;;18.70;28.80
47706;BME280;33471;52.104;1.318;2023-05-02T12:56:14;102504.25;;;19.00;29.65
47706;BME280;33471;52.104;1.318;2023-05-02T12:58:43;102518.15;;;18.16;29.91
47706;BME280;33471;52.104;1.318;2023-05-02T13:01:11;102517.09;;;17.60;32.07